Wednesday, September 20, 2017, 9:32 PM EDT

KMUI, Muir Army Air Field / Indiantown

Location: Jonestown, PA, United States Lat: 40.433
Local Time: 9:32 PM EDT ( 1:32 GMT) Lon: -76.567
Time Zone: US/Eastern Elev: 488 ft

Show me the last for .
Show Decoded

2017-09-20 20:58 METAR KMUI 210058Z AUTO 00000KT 10SM CLR 20/18 A2996 RMK AO2 SLP146 T01990176 =
2017-09-20 19:58 METAR KMUI 202358Z 35004KT 10SM CLR 22/17 A2995 RMK AO2A SLP142 T02170172 10290
                 20215 52006 =
2017-09-20 18:58 METAR KMUI 202258Z 32003KT 10SM CLR 24/18 A2995 RMK AO2A SLP142 T02440182 =
2017-09-20 17:58 METAR KMUI 202158Z 28003KT 10SM FEW250 28/17 A2994 RMK AO2A SLP138 T02810169 =
2017-09-20 16:58 METAR KMUI 202058Z 35004KT 10SM FEW050 FEW250 29/16 A2994 RMK AO2A SLP138
                 T02870162 56003 =
2017-09-20 15:58 METAR KMUI 201958Z 01004KT 10SM FEW050 FEW250 29/17 A2994 RMK AO2A SLP138
                 T02890167 =
2017-09-20 14:58 METAR KMUI 201858Z 34009KT 10SM FEW250 29/17 A2994 RMK AO2A SLP138 T02860173 =
2017-09-20 13:58 METAR KMUI 201758Z 35007KT 10SM FEW040 FEW120 SCT250 28/17 A2994 RMK AO2A SLP138
                 T02800169 10281 20208 58008 =
2017-09-20 12:58 METAR KMUI 201658Z 01005KT 10SM FEW040 FEW120 SCT250 27/17 A2996 RMK AO2A SLP145
                 T02730172 =
2017-09-20 11:58 METAR KMUI 201558Z 01005KT 10SM FEW040 FEW120 SCT250 27/17 A2997 RMK AO2A SLP148
                 T02670174 =
2017-09-20 10:58 METAR KMUI 201458Z 01006KT 10SM FEW120 SCT250 26/18 A2997 RMK AO2A SLP148
                 T02600176 50000 =
2017-09-20 09:58 METAR KMUI 201358Z 35003KT 10SM SCT120 24/17 A2997 RMK AO2A SLP148 T02420171 =
2017-09-20 08:58 METAR KMUI 201258Z 01003KT 10SM SCT120 22/16 A2998 RMK AO2A SLP152 T02200163 =
2017-09-20 07:58 METAR KMUI 201158Z AUTO 00000KT 10SM OVC120 21/16 A2997 RMK AO2 SLP149 T02080164
                 10218 20200 52016 =
2017-09-20 06:58 METAR KMUI 201058Z AUTO 00000KT 10SM OVC110 20/17 A2995 RMK AO2 SLP142 T02030165
                 =
2017-09-20 05:58 METAR KMUI 200958Z AUTO 35004KT 10SM SCT120 20/16 A2994 RMK AO2 SLP138 T02030164
                 =
2017-09-20 04:58 METAR KMUI 200858Z AUTO 34008KT 10SM SCT110 22/16 A2992 RMK AO2 SLP131 T02170163
                 56004 =
2017-09-20 03:58 METAR KMUI 200758Z AUTO 00000KT 10SM BKN110 BKN140 21/17 A2992 RMK AO2 SLP131
                 T02130165 =
2017-09-20 02:58 METAR KMUI 200658Z AUTO 10003KT 10SM SCT130 21/17 A2993 RMK AO2 SLP135 T02090167
                 =
2017-09-20 01:58 METAR KMUI 200558Z AUTO 00000KT 10SM OVC140 20/18 A2993 RMK AO2 SLP135 T02030176
                 10233 20202 55005 =
2017-09-20 00:58 METAR KMUI 200458Z AUTO 00000KT 10SM BKN100 22/17 A2993 RMK AO2 SLP135 T02150169
                 402680157 =
2017-09-19 23:58 METAR KMUI 200358Z AUTO 02005KT 10SM OVC095 23/17 A2994 RMK AO2 SLP138 T02250166
                 =
2017-09-19 22:58 METAR KMUI 200258Z AUTO 05003KT 9SM BKN100 21/19 A2995 RMK AO2 SLP142 T02130185
                 51010 =
2017-09-19 21:58 METAR KMUI 200158Z AUTO 08005KT 10SM FEW095 23/18 A2995 RMK AO2 SLP142 T02310181
                 =

Support USWX by starting your Amazon purchase here.